Time;durP1;ratioP1;P1;durP2;ratioP2;P2;SDS_P1;SDS_P2;PMS_P1;PMS_P2;Temp;Humidity;BMP_temperature;BMP_pressure;BME280_temperature;BME280_humidity;BME280_pressure;Samples;Min_cycle;Max_cycle;Signal;HPM_P1;HPM_P2
2023/11/26 00:01:27;;;;;;;953.63;858.37;;;4.40;99.90;;;;;;6156013;23;20882;-74
2023/11/26 00:03:57;;;;;;;980.93;884.83;;;4.40;99.90;;;;;;6155969;23;20882;-74
2023/11/26 00:06:24;;;;;;;975.77;881.10;;;4.40;99.90;;;;;;6155731;23;20412;-74
2023/11/26 00:08:51;;;;;;;966.53;872.50;;;4.40;99.90;;;;;;6155767;23;20901;-74
2023/11/26 00:11:18;;;;;;;956.10;863.77;;;4.40;99.90;;;;;;6155748;23;20470;-74
2023/11/26 00:13:45;;;;;;;954.37;861.87;;;4.40;99.90;;;;;;6156446;23;20418;-74
2023/11/26 00:16:12;;;;;;;957.63;867.00;;;4.40;99.90;;;;;;6156024;23;20785;-74
2023/11/26 00:18:39;;;;;;;959.97;869.20;;;4.40;99.90;;;;;;6155962;23;20521;-74
2023/11/26 00:21:07;;;;;;;985.60;896.17;;;4.40;99.90;;;;;;6155496;23;20417;-74
2023/11/26 00:23:34;;;;;;;977.63;888.33;;;4.40;99.90;;;;;;6156052;23;20464;-74
2023/11/26 00:26:02;;;;;;;988.80;899.90;;;4.40;99.90;;;;;;6156161;23;20710;-74
2023/11/26 00:28:29;;;;;;;978.93;891.63;;;4.40;99.90;;;;;;6156240;23;20412;-74
2023/11/26 00:30:56;;;;;;;973.10;886.33;;;4.40;99.90;;;;;;6156001;23;20476;-74
2023/11/26 00:33:23;;;;;;;965.93;880.57;;;4.50;99.90;;;;;;6155635;23;20451;-74
2023/11/26 00:35:50;;;;;;;970.23;885.83;;;4.40;99.90;;;;;;6154349;23;20455;-74
2023/11/26 00:38:19;;;;;;;963.13;879.13;;;4.40;99.90;;;;;;6155794;23;20792;-74
2023/11/26 00:40:45;;;;;;;959.80;876.93;;;4.40;99.90;;;;;;6155574;23;20464;-74
2023/11/26 00:43:13;;;;;;;951.97;869.20;;;4.40;99.90;;;;;;6156095;23;20411;-74
2023/11/26 00:45:39;;;;;;;950.67;868.37;;;4.40;99.90;;;;;;6155359;23;20413;-74
2023/11/26 00:48:06;;;;;;;962.53;880.80;;;4.40;99.90;;;;;;6155789;23;20411;-74
2023/11/26 00:50:33;;;;;;;956.00;873.27;;;4.50;99.90;;;;;;6155337;23;20743;-74
2023/11/26 00:53:00;;;;;;;958.30;876.60;;;4.50;99.90;;;;;;6155958;23;20499;-74
2023/11/26 00:55:29;;;;;;;955.20;875.60;;;4.50;99.90;;;;;;6155281;23;20419;-74
2023/11/26 00:57:57;;;;;;;959.37;879.90;;;4.50;99.90;;;;;;6155524;23;20413;-74
2023/11/26 01:00:24;;;;;;;959.77;881.80;;;4.50;99.90;;;;;;6155703;23;20415;-74
2023/11/26 01:02:51;;;;;;;951.53;874.83;;;4.50;99.90;;;;;;6155380;23;20413;-74
2023/11/26 01:05:18;;;;;;;956.83;879.77;;;4.50;99.90;;;;;;6155829;23;20413;-74
2023/11/26 01:07:45;;;;;;;951.07;875.87;;;4.50;99.90;;;;;;6155480;23;20953;-74
2023/11/26 01:10:12;;;;;;;954.07;879.67;;;4.40;99.90;;;;;;6155542;23;20436;-74
2023/11/26 01:12:41;;;;;;;948.93;875.27;;;4.40;99.90;;;;;;6155440;23;20997;-74
2023/11/26 01:15:08;;;;;;;945.43;872.67;;;4.40;99.90;;;;;;6155625;23;20417;-74
2023/11/26 01:17:36;;;;;;;947.37;873.90;;;4.30;99.90;;;;;;6155245;23;20448;-74
2023/11/26 01:20:04;;;;;;;953.63;879.63;;;4.30;99.90;;;;;;6154446;23;20475;-73
2023/11/26 01:22:31;;;;;;;949.43;876.00;;;4.30;99.90;;;;;;6155432;23;20419;-74
2023/11/26 01:24:58;;;;;;;947.37;874.10;;;4.30;99.90;;;;;;6156009;23;20503;-74
2023/11/26 01:27:25;;;;;;;940.33;867.77;;;4.20;99.90;;;;;;6155175;23;20800;-74
2023/11/26 01:29:53;;;;;;;946.37;873.17;;;4.20;99.90;;;;;;6155492;23;20408;-74
2023/11/26 01:32:20;;;;;;;939.73;867.07;;;4.20;99.90;;;;;;6155191;23;20933;-74
2023/11/26 01:34:47;;;;;;;947.33;875.40;;;4.20;99.90;;;;;;6155398;23;20417;-74
2023/11/26 01:37:15;;;;;;;949.97;877.27;;;4.20;99.90;;;;;;6155573;23;20483;-74
2023/11/26 01:39:42;;;;;;;940.63;867.77;;;4.30;99.90;;;;;;6155319;23;20440;-74
2023/11/26 01:42:09;;;;;;;942.73;870.17;;;4.30;99.90;;;;;;6155345;23;20409;-73
2023/11/26 01:44:36;;;;;;;933.83;861.40;;;4.20;99.90;;;;;;6155553;23;20787;-74
2023/11/26 01:47:06;;;;;;;942.87;870.70;;;4.20;99.90;;;;;;6155369;23;20472;-74
2023/11/26 01:49:34;;;;;;;937.50;865.87;;;4.20;99.90;;;;;;6154530;23;20493;-74
2023/11/26 01:52:01;;;;;;;940.33;867.70;;;4.10;99.90;;;;;;6155252;23;20495;-74
2023/11/26 01:54:30;;;;;;;937.57;865.17;;;4.10;99.90;;;;;;6154749;23;20427;-74
2023/11/26 01:56:58;;;;;;;944.40;871.40;;;4.00;99.90;;;;;;6155359;23;20436;-74
2023/11/26 01:59:26;;;;;;;943.10;869.90;;;4.00;99.90;;;;;;6154925;23;20476;-74
2023/11/26 02:01:53;;;;;;;931.63;858.30;;;3.90;99.90;;;;;;6154941;23;20417;-74
2023/11/26 02:04:21;;;;;;;936.37;862.77;;;3.80;99.90;;;;;;6154960;23;20417;-74
2023/11/26 02:06:49;;;;;;;931.07;857.27;;;3.80;99.90;;;;;;6155248;23;20411;-74
2023/11/26 02:09:16;;;;;;;932.77;858.60;;;3.70;99.90;;;;;;6155286;23;20433;-74
2023/11/26 02:11:44;;;;;;;933.37;859.37;;;3.60;99.90;;;;;;6155227;23;20423;-74
2023/11/26 02:14:11;;;;;;;939.37;865.10;;;3.30;99.90;;;;;;6155275;23;20743;-74
2023/11/26 02:16:38;;;;;;;948.00;872.23;;;3.10;99.90;;;;;;6154868;23;20447;-74
2023/11/26 02:19:13;;;;;;;946.20;869.93;;;2.90;99.90;;;;;;6154698;23;20470;-74
2023/11/26 02:21:42;;;;;;;939.03;860.40;;;2.70;99.90;;;;;;6155199;23;20449;-74
2023/11/26 02:24:14;;;;;;;938.80;856.97;;;2.50;99.90;;;;;;6155165;23;20432;-74
2023/11/26 02:26:42;;;;;;;945.27;861.50;;;2.40;99.90;;;;;;6154746;23;20870;-74
2023/11/26 02:29:09;;;;;;;948.97;861.30;;;2.30;99.90;;;;;;6155148;23;20428;-74
2023/11/26 02:31:36;;;;;;;959.57;870.87;;;2.20;99.90;;;;;;6164577;23;20744;-75
2023/11/26 02:34:03;;;;;;;974.00;882.70;;;2.00;99.90;;;;;;6154653;23;20460;-74
2023/11/26 02:36:30;;;;;;;973.33;880.73;;;2.00;99.90;;;;;;6155097;23;20433;-74
2023/11/26 02:38:57;;;;;;;976.47;882.50;;;1.90;99.90;;;;;;6154604;23;20438;-74
2023/11/26 02:41:25;;;;;;;982.83;887.00;;;1.80;99.90;;;;;;6154628;23;20445;-74
2023/11/26 02:43:53;;;;;;;979.10;883.00;;;1.60;99.90;;;;;;6155022;23;20446;-75
2023/11/26 02:46:21;;;;;;;973.83;878.17;;;1.50;99.90;;;;;;6154507;23;20493;-75
2023/11/26 02:48:48;;;;;;;979.77;883.80;;;1.40;99.90;;;;;;6154562;23;20441;-75
2023/11/26 02:51:14;;;;;;;977.13;879.87;;;1.40;99.90;;;;;;6154931;23;20410;-75
2023/11/26 02:53:41;;;;;;;976.20;877.17;;;1.40;99.90;;;;;;6154719;23;20484;-75
2023/11/26 02:56:09;;;;;;;979.70;878.30;;;1.40;99.90;;;;;;6154531;23;20484;-75
2023/11/26 02:58:36;;;;;;;982.27;880.10;;;1.50;99.90;;;;;;6154591;23;20496;-75
2023/11/26 03:01:05;;;;;;;981.23;878.67;;;1.40;99.90;;;;;;6154645;23;20489;-75
2023/11/26 03:03:33;;;;;;;961.90;860.50;;;1.40;99.90;;;;;;6155062;23;20418;-75
2023/11/26 03:06:00;;;;;;;982.57;878.87;;;1.40;99.90;;;;;;6153790;23;20460;-75
2023/11/26 03:08:32;;;;;;;980.50;877.40;;;1.30;99.90;;;;;;6154841;23;20784;-75
2023/11/26 03:13:44;;;;;;;974.77;869.20;;;1.30;99.90;;;;;;6154839;23;20389;-75
2023/11/26 03:16:13;;;;;;;985.57;877.17;;;1.20;99.90;;;;;;6154731;23;20418;-75
2023/11/26 03:18:42;;;;;;;993.87;885.53;;;1.10;99.90;;;;;;6154822;23;20394;-75
2023/11/26 03:21:15;;;;;;;982.40;874.30;;;1.20;99.90;;;;;;6154421;23;20895;-75
2023/11/26 03:23:42;;;;;;;967.87;860.57;;;1.20;99.90;;;;;;6154822;23;20859;-75
2023/11/26 03:26:09;;;;;;;996.30;887.43;;;1.30;99.90;;;;;;6154332;23;20895;-75
2023/11/26 03:28:36;;;;;;;987.37;877.87;;;1.30;99.90;;;;;;6154807;23;20501;-74
2023/11/26 03:31:04;;;;;;;998.10;887.47;;;1.30;99.90;;;;;;6154727;23;20416;-75
2023/11/26 03:33:32;;;;;;;1002.20;873.93;;;1.40;99.90;;;;;;6154128;23;20410;-75
2023/11/26 03:35:59;;;;;;;1000.63;886.03;;;1.40;99.90;;;;;;6154817;23;20742;-75
2023/11/26 03:38:26;;;;;;;1011.87;899.77;;;1.40;99.90;;;;;;6154212;23;20410;-74
2023/11/26 03:40:53;;;;;;;1006.97;894.67;;;1.40;99.90;;;;;;6154100;23;20465;-75
2023/11/26 03:43:20;;;;;;;1017.13;897.73;;;1.40;99.90;;;;;;6154707;23;20410;-74
2023/11/26 03:45:48;;;;;;;1030.17;901.27;;;1.40;99.90;;;;;;6154687;23;20438;-75
2023/11/26 03:48:15;;;;;;;1025.07;902.30;;;1.40;99.90;;;;;;6155111;23;20437;-74
2023/11/26 03:50:43;;;;;;;1035.87;901.77;;;1.40;99.90;;;;;;6154650;23;20489;-74
2023/11/26 03:53:10;;;;;;;1033.67;900.90;;;1.50;99.90;;;;;;6156249;23;20445;-75
2023/11/26 03:55:37;;;;;;;1028.90;885.10;;;1.50;99.90;;;;;;6155257;23;20449;-74
2023/11/26 03:58:06;;;;;;;1037.23;877.07;;;1.50;99.90;;;;;;6156356;23;20445;-74
2023/11/26 04:00:33;;;;;;;1022.30;868.10;;;1.60;99.90;;;;;;6155893;23;20469;-75
2023/11/26 04:03:00;;;;;;;1050.93;897.40;;;1.60;99.90;;;;;;6156230;23;20968;-74
2023/11/26 04:05:27;;;;;;;1048.17;890.70;;;1.60;99.90;;;;;;6155110;23;20453;-74
2023/11/26 04:07:55;;;;;;;1054.40;899.43;;;1.60;99.90;;;;;;6156491;23;20417;-74
2023/11/26 04:10:22;;;;;;;1080.53;893.80;;;1.60;99.90;;;;;;6155976;23;20489;-74
2023/11/26 04:12:49;;;;;;;1100.00;894.40;;;1.70;99.90;;;;;;6155972;23;20441;-74
2023/11/26 04:15:19;;;;;;;1097.53;894.07;;;1.90;99.90;;;;;;6155854;23;20410;-74
2023/11/26 04:17:46;;;;;;;1082.47;883.27;;;2.00;99.90;;;;;;6156151;23;20735;-74
2023/11/26 04:20:13;;;;;;;1091.07;876.33;;;2.10;99.90;;;;;;6155693;23;20434;-74
2023/11/26 04:22:40;;;;;;;1085.37;871.97;;;2.20;99.90;;;;;;6156403;23;20446;-74
2023/11/26 04:25:09;;;;;;;1072.80;872.40;;;2.20;99.90;;;;;;6156191;23;20746;-74
2023/11/26 04:27:36;;;;;;;1079.23;876.80;;;2.30;99.90;;;;;;6156198;23;20410;-74
2023/11/26 04:30:05;;;;;;;1083.67;877.17;;;2.30;99.90;;;;;;6155696;23;20406;-74
2023/11/26 04:32:32;;;;;;;1097.03;881.23;;;2.40;99.90;;;;;;6155635;23;20414;-74
2023/11/26 04:35:00;;;;;;;1100.17;884.47;;;2.50;99.90;;;;;;6155587;23;20445;-75
2023/11/26 04:37:27;;;;;;;1103.13;885.60;;;2.50;99.90;;;;;;6156017;23;20410;-75
2023/11/26 04:39:54;;;;;;;1107.57;889.20;;;2.70;99.90;;;;;;6155557;23;20489;-75
2023/11/26 04:42:22;;;;;;;1128.40;901.50;;;2.80;99.90;;;;;;6155653;23;20498;-75
2023/11/26 04:44:49;;;;;;;1106.50;897.00;;;2.90;99.90;;;;;;6156048;23;20417;-75
2023/11/26 04:47:16;;;;;;;1118.73;896.00;;;2.90;99.90;;;;;;6155853;23;20410;-75
2023/11/26 04:49:43;;;;;;;1116.13;902.03;;;3.00;99.90;;;;;;6155289;23;20892;-76
2023/11/26 04:52:10;;;;;;;1126.50;900.53;;;3.10;99.90;;;;;;6155738;23;20494;-75
2023/11/26 04:54:38;;;;;;;1118.93;900.87;;;3.10;99.90;;;;;;6155673;23;20766;-76
2023/11/26 04:57:05;;;;;;;1118.17;880.80;;;3.10;99.90;;;;;;6155371;23;20417;-76
2023/11/26 04:59:33;;;;;;;1114.40;877.60;;;3.10;99.90;;;;;;6155065;23;20813;-76
2023/11/26 05:02:05;;;;;;;1128.50;875.80;;;3.20;99.90;;;;;;6154792;23;20494;-76
2023/11/26 05:04:32;;;;;;;1132.53;893.53;;;3.20;99.90;;;;;;6155367;23;20395;-76
2023/11/26 05:06:59;;;;;;;1147.43;890.20;;;3.20;99.90;;;;;;6155829;23;20442;-76
2023/11/26 05:09:26;;;;;;;1133.83;890.57;;;3.20;99.90;;;;;;6154957;23;20413;-76
2023/11/26 05:11:53;;;;;;;1131.67;879.00;;;3.40;99.90;;;;;;6155566;23;20439;-76
2023/11/26 05:14:20;;;;;;;1140.40;879.20;;;3.40;99.90;;;;;;6155310;23;20422;-76
2023/11/26 05:16:49;;;;;;;1133.67;885.90;;;3.40;99.90;;;;;;6155419;23;20468;-76
2023/11/26 05:19:16;;;;;;;1130.77;893.97;;;3.40;99.90;;;;;;6155108;23;20412;-76
2023/11/26 05:21:43;;;;;;;1133.90;891.70;;;3.50;99.90;;;;;;6155823;23;20440;-76
2023/11/26 05:24:10;;;;;;;1147.90;898.13;;;3.50;99.90;;;;;;6155104;23;20461;-76
2023/11/26 05:26:37;;;;;;;1145.67;904.13;;;3.50;99.90;;;;;;6155418;23;20433;-76
2023/11/26 05:29:05;;;;;;;1159.60;915.70;;;3.50;99.90;;;;;;6154632;23;20911;-76
2023/11/26 05:31:31;;;;;;;1148.60;907.23;;;3.50;99.90;;;;;;6155174;23;20438;-76
2023/11/26 05:34:00;;;;;;;1139.23;913.47;;;3.50;99.90;;;;;;6155433;23;20442;-76
2023/11/26 05:36:27;;;;;;;1154.60;907.83;;;3.60;99.90;;;;;;6155323;23;20495;-76
2023/11/26 05:38:54;;;;;;;1161.03;904.50;;;3.60;99.90;;;;;;6155429;23;20460;-76
2023/11/26 05:41:24;;;;;;;1160.33;921.83;;;3.60;99.90;;;;;;6154925;23;20494;-76
2023/11/26 05:43:51;;;;;;;1155.73;913.27;;;3.60;99.90;;;;;;6155163;23;20442;-76
2023/11/26 05:46:18;;;;;;;1141.83;909.17;;;3.60;99.90;;;;;;6154923;23;20417;-76
2023/11/26 05:48:45;;;;;;;1142.50;909.00;;;3.60;99.90;;;;;;6155395;23;20419;-76
2023/11/26 05:51:19;;;;;;;1154.33;907.53;;;3.60;99.90;;;;;;6154917;23;20409;-76
2023/11/26 05:53:46;;;;;;;1144.90;912.77;;;3.70;99.90;;;;;;6155640;23;20480;-76
2023/11/26 05:56:13;;;;;;;1133.53;893.33;;;3.70;99.90;;;;;;6154895;23;20459;-76
2023/11/26 05:58:40;;;;;;;1146.10;899.80;;;3.70;99.90;;;;;;6154801;23;20760;-76
2023/11/26 06:01:07;;;;;;;1132.43;890.80;;;3.60;99.90;;;;;;6154903;23;20438;-76
2023/11/26 06:03:36;;;;;;;1121.03;886.03;;;3.70;99.90;;;;;;6155302;23;20759;-76
2023/11/26 06:06:03;;;;;;;1128.87;890.40;;;3.70;99.90;;;;;;6155251;23;20438;-76
2023/11/26 06:08:31;;;;;;;1127.30;886.10;;;3.80;99.90;;;;;;6155369;23;20485;-76
2023/11/26 06:10:58;;;;;;;1123.87;878.50;;;3.80;99.90;;;;;;6155288;23;20494;-75
2023/11/26 06:13:27;;;;;;;1128.60;868.70;;;3.80;99.90;;;;;;6164993;23;20484;-75
2023/11/26 06:15:54;;;;;;;1141.33;867.57;;;3.80;99.90;;;;;;6154986;23;20502;-76
2023/11/26 06:18:21;;;;;;;1149.23;879.63;;;3.70;99.90;;;;;;6155556;23;20720;-76
2023/11/26 06:20:48;;;;;;;1126.47;897.57;;;3.70;99.90;;;;;;6155459;23;20493;-76
2023/11/26 06:23:15;;;;;;;1136.13;906.53;;;3.70;99.90;;;;;;6155647;23;20418;-76
2023/11/26 06:25:43;;;;;;;1120.33;905.33;;;3.60;99.90;;;;;;6155282;23;20952;-76
2023/11/26 06:28:10;;;;;;;1135.73;904.37;;;3.60;99.90;;;;;;6155335;23;20503;-76
2023/11/26 06:30:37;;;;;;;1148.53;892.60;;;3.60;99.90;;;;;;6154623;23;20408;-76
2023/11/26 06:33:04;;;;;;;1114.97;881.23;;;3.60;99.90;;;;;;6154485;23;20464;-76
2023/11/26 06:35:32;;;;;;;1138.43;890.03;;;3.50;99.90;;;;;;6154838;23;20411;-76
2023/11/26 06:38:02;;;;;;;1137.57;898.57;;;3.50;99.90;;;;;;6154953;23;20447;-76
2023/11/26 06:40:29;;;;;;;1123.90;881.80;;;3.50;99.90;;;;;;6154962;23;20436;-76
2023/11/26 06:42:58;;;;;;;1124.73;878.53;;;3.50;99.90;;;;;;6153953;23;20718;-76
2023/11/26 06:45:26;;;;;;;1134.93;884.80;;;3.60;99.90;;;;;;6154910;23;20463;-76
2023/11/26 06:47:53;;;;;;;1128.03;880.83;;;3.60;99.90;;;;;;6154541;23;20422;-76
2023/11/26 06:50:20;;;;;;;1124.43;890.33;;;3.60;99.90;;;;;;6154181;23;20408;-76
2023/11/26 06:52:47;;;;;;;1114.87;888.40;;;3.60;99.90;;;;;;6154670;23;20464;-76
2023/11/26 06:55:14;;;;;;;1131.43;891.40;;;3.60;99.90;;;;;;6154206;23;20468;-76
2023/11/26 06:57:41;;;;;;;1125.50;888.90;;;3.60;99.90;;;;;;6154132;23;20440;-76
2023/11/26 07:00:11;;;;;;;1129.60;888.63;;;3.60;99.90;;;;;;6154338;23;20441;-76
2023/11/26 07:02:38;;;;;;;1111.93;898.80;;;3.60;99.90;;;;;;6154425;23;20723;-76
2023/11/26 07:05:06;;;;;;;1121.03;887.03;;;3.60;99.90;;;;;;6154712;23;20412;-76
2023/11/26 07:07:35;;;;;;;1119.77;882.40;;;3.60;99.90;;;;;;6154622;23;20417;-76
2023/11/26 07:10:02;;;;;;;1096.37;887.40;;;3.70;99.90;;;;;;6154351;23;20526;-76
2023/11/26 07:12:29;;;;;;;1118.63;880.60;;;3.70;99.90;;;;;;6154686;23;20416;-76
2023/11/26 07:14:56;;;;;;;1108.87;868.03;;;3.60;99.90;;;;;;6154355;23;20415;-76
2023/11/26 07:17:27;;;;;;;1093.23;860.77;;;3.70;99.90;;;;;;6154383;23;20417;-76
2023/11/26 07:19:54;;;;;;;1105.03;862.87;;;3.70;99.90;;;;;;6154651;23;20395;-76
2023/11/26 07:22:21;;;;;;;1112.33;866.13;;;3.80;99.90;;;;;;6154707;23;20414;-76
2023/11/26 07:24:48;;;;;;;1104.77;863.80;;;3.80;99.90;;;;;;6154802;23;20741;-76
2023/11/26 07:27:15;;;;;;;1100.07;861.00;;;3.80;99.90;;;;;;6156469;23;20768;-76
2023/11/26 07:29:42;;;;;;;1106.67;861.00;;;3.80;99.90;;;;;;6156330;23;20419;-76
2023/11/26 07:32:11;;;;;;;1082.93;850.40;;;3.80;99.90;;;;;;6155964;23;20406;-76
2023/11/26 07:34:39;;;;;;;1088.50;852.20;;;3.80;99.90;;;;;;6156247;23;20412;-76
2023/11/26 07:37:06;;;;;;;1095.87;862.20;;;3.90;99.90;;;;;;6156032;23;20409;-76
2023/11/26 07:39:33;;;;;;;1077.83;845.80;;;3.90;99.90;;;;;;6156291;23;20801;-76
2023/11/26 07:42:00;;;;;;;1097.80;844.27;;;3.90;99.90;;;;;;6155769;23;20520;-76
2023/11/26 07:44:27;;;;;;;1089.23;831.87;;;4.00;99.90;;;;;;6156565;23;20439;-76
2023/11/26 07:46:54;;;;;;;1094.83;842.13;;;4.10;99.90;;;;;;6156610;23;20413;-76
2023/11/26 07:49:21;;;;;;;1101.40;849.57;;;4.20;99.90;;;;;;6156182;23;20410;-76
2023/11/26 07:51:49;;;;;;;1100.63;839.60;;;4.30;99.90;;;;;;6156202;23;20413;-76
2023/11/26 07:54:16;;;;;;;1100.00;831.43;;;4.40;99.90;;;;;;6156298;23;20422;-76
2023/11/26 07:56:44;;;;;;;1089.43;844.17;;;4.50;99.90;;;;;;6156323;23;20397;-76
2023/11/26 07:59:11;;;;;;;1093.40;826.07;;;4.60;99.90;;;;;;6155399;23;20751;-75
2023/11/26 08:01:38;;;;;;;1074.70;838.63;;;4.60;99.90;;;;;;6155418;23;20487;-75
2023/11/26 08:04:05;;;;;;;1078.80;836.27;;;4.70;99.90;;;;;;6154804;23;20414;-76
2023/11/26 08:06:32;;;;;;;1081.27;845.90;;;4.70;99.90;;;;;;6154723;23;20412;-75
2023/11/26 08:09:04;;;;;;;1072.17;829.73;;;4.80;99.90;;;;;;6155964;23;20409;-75
2023/11/26 08:11:34;;;;;;;1049.00;823.00;;;4.80;99.90;;;;;;6154927;23;20872;-75
2023/11/26 08:14:04;;;;;;;1057.43;818.10;;;4.90;99.90;;;;;;6155474;23;20437;-75
2023/11/26 08:16:31;;;;;;;1029.43;833.07;;;4.90;99.90;;;;;;6155608;23;20413;-75
2023/11/26 08:19:03;;;;;;;1018.10;840.20;;;5.00;99.90;;;;;;6154627;23;20424;-75
2023/11/26 08:21:34;;;;;;;1009.23;849.13;;;5.10;99.90;;;;;;6155742;23;20429;-75
2023/11/26 08:24:04;;;;;;;989.03;833.63;;;5.10;99.90;;;;;;6155362;23;20394;-75
2023/11/26 08:26:33;;;;;;;983.90;836.77;;;5.20;99.90;;;;;;6154835;23;20397;-75
2023/11/26 08:29:00;;;;;;;975.33;836.70;;;5.30;99.90;;;;;;6154961;23;20505;-75
2023/11/26 08:31:29;;;;;;;955.03;835.50;;;5.30;99.90;;;;;;6155125;23;20445;-75
2023/11/26 08:33:56;;;;;;;944.30;835.13;;;5.40;99.90;;;;;;6155337;23;20460;-75
2023/11/26 08:36:23;;;;;;;949.07;845.10;;;5.40;99.90;;;;;;6154988;23;20410;-74
2023/11/26 08:38:50;;;;;;;970.83;866.73;;;5.50;99.90;;;;;;6154475;23;20502;-74
2023/11/26 08:41:21;;;;;;;965.43;863.77;;;5.60;99.90;;;;;;6154388;23;20436;-74
2023/11/26 08:43:48;;;;;;;958.23;859.27;;;5.60;99.90;;;;;;6155203;23;20398;-75
2023/11/26 08:46:16;;;;;;;951.40;852.93;;;5.60;99.90;;;;;;6154934;23;20413;-74
2023/11/26 08:48:44;;;;;;;949.27;853.00;;;5.70;99.90;;;;;;6155002;23;20803;-74
2023/11/26 08:51:11;;;;;;;959.30;863.57;;;5.80;99.90;;;;;;6154840;23;20406;-74
2023/11/26 08:53:39;;;;;;;945.80;854.37;;;5.90;99.90;;;;;;6155560;23;20410;-74
2023/11/26 08:56:06;;;;;;;966.17;873.80;;;5.90;99.90;;;;;;6155663;23;20475;-74
2023/11/26 08:58:35;;;;;;;963.03;871.93;;;5.90;99.90;;;;;;6155796;23;20807;-74
2023/11/26 09:01:01;;;;;;;973.67;886.50;;;6.00;99.90;;;;;;6155311;23;20469;-74
2023/11/26 09:03:28;;;;;;;976.90;890.47;;;6.00;99.90;;;;;;6165448;23;20461;-73
2023/11/26 09:05:55;;;;;;;971.93;890.40;;;6.10;99.90;;;;;;6155832;23;20420;-73
2023/11/26 09:08:22;;;;;;;960.57;880.30;;;6.10;99.90;;;;;;6155710;23;20468;-74
2023/11/26 09:10:49;;;;;;;973.40;894.93;;;6.20;99.90;;;;;;6155230;23;20496;-73
2023/11/26 09:13:16;;;;;;;969.73;889.97;;;6.20;99.90;;;;;;6155321;23;20422;-73
2023/11/26 09:15:45;;;;;;;958.03;883.63;;;6.30;99.90;;;;;;6155147;23;20448;-73
2023/11/26 09:18:11;;;;;;;956.60;882.30;;;6.30;99.90;;;;;;6155438;23;20655;-73
2023/11/26 09:20:41;;;;;;;952.33;879.47;;;6.30;99.90;;;;;;6155654;23;20497;-73
2023/11/26 09:23:08;;;;;;;944.67;874.73;;;6.40;99.90;;;;;;6155862;23;20419;-73
2023/11/26 09:25:36;;;;;;;937.40;872.47;;;6.40;99.90;;;;;;6155101;23;20415;-73
2023/11/26 09:28:05;;;;;;;919.83;856.27;;;6.50;99.90;;;;;;6155065;23;20411;-73
2023/11/26 09:30:32;;;;;;;925.03;862.30;;;6.50;99.90;;;;;;6155255;23;20442;-73
2023/11/26 09:33:01;;;;;;;926.47;865.53;;;6.50;99.90;;;;;;6155405;23;20774;-73
2023/11/26 09:35:27;;;;;;;914.60;854.00;;;6.60;99.90;;;;;;6155020;23;20724;-73
2023/11/26 09:37:54;;;;;;;904.53;847.70;;;6.70;99.90;;;;;;6155340;23;20411;-73
2023/11/26 09:40:21;;;;;;;871.67;820.27;;;6.70;99.90;;;;;;6155159;23;20493;-73
2023/11/26 09:42:51;;;;;;;874.87;822.70;;;6.70;99.90;;;;;;6154959;23;20475;-73
2023/11/26 09:45:19;;;;;;;869.43;819.20;;;6.70;99.90;;;;;;6155008;23;20989;-72
2023/11/26 09:47:46;;;;;;;863.83;814.43;;;6.80;99.90;;;;;;6155183;23;20878;-72
2023/11/26 09:50:14;;;;;;;811.90;767.67;;;6.80;99.90;;;;;;6154669;23;20495;-73
2023/11/26 09:52:42;;;;;;;822.10;776.30;;;6.80;99.90;;;;;;6155474;23;20431;-73
2023/11/26 09:55:09;;;;;;;738.07;702.13;;;6.80;99.90;;;;;;6155100;23;20451;-72
2023/11/26 09:57:39;;;;;;;775.70;736.80;;;6.80;99.90;;;;;;6154924;23;20411;-72
2023/11/26 10:00:10;;;;;;;736.83;701.23;;;6.90;99.90;;;;;;6154678;23;20497;-72
2023/11/26 10:02:37;;;;;;;644.13;615.20;;;6.90;99.90;;;;;;6154783;23;20510;-72
2023/11/26 10:05:06;;;;;;;633.17;605.43;;;6.90;99.90;;;;;;6155072;23;20410;-72
2023/11/26 10:07:36;;;;;;;666.40;636.07;;;7.00;99.90;;;;;;6155345;23;20417;-72
2023/11/26 10:10:09;;;;;;;584.03;558.70;;;7.10;99.90;;;;;;6154611;23;20410;-72
2023/11/26 10:12:51;;;;;;;575.10;550.67;;;7.10;99.90;;;;;;6154518;23;20394;-72
2023/11/26 10:15:19;;;;;;;552.47;527.43;;;7.20;99.90;;;;;;6152826;23;20867;-72
2023/11/26 10:18:00;;;;;;;444.77;426.93;;;7.30;99.90;;;;;;6154284;23;20412;-72
2023/11/26 10:20:27;;;;;;;457.87;439.77;;;7.30;99.90;;;;;;6154498;23;20420;-72
2023/11/26 10:22:56;;;;;;;389.80;374.70;;;7.50;99.90;;;;;;6164401;23;20769;-74
2023/11/26 10:25:24;;;;;;;373.87;360.23;;;7.50;99.90;;;;;;6154278;23;20419;-74
2023/11/26 10:27:51;;;;;;;400.27;385.57;;;7.50;99.90;;;;;;6154104;23;20411;-74
2023/11/26 10:30:25;;;;;;;426.37;410.10;;;7.60;99.90;;;;;;6153608;23;20452;-74
2023/11/26 10:32:56;;;;;;;288.47;277.17;;;7.70;99.90;;;;;;6153949;23;20903;-74
2023/11/26 10:35:23;;;;;;;330.53;318.30;;;7.60;99.90;;;;;;6154072;23;20417;-74
2023/11/26 10:37:50;;;;;;;309.63;298.13;;;7.70;99.90;;;;;;6153915;23;20413;-74
2023/11/26 10:40:19;;;;;;;377.53;363.83;;;7.60;99.90;;;;;;6153729;23;20415;-75
2023/11/26 10:42:47;;;;;;;434.77;418.23;;;7.50;99.90;;;;;;6154262;23;20444;-75
2023/11/26 10:45:15;;;;;;;514.63;494.33;;;7.40;99.90;;;;;;6154563;23;20736;-75
2023/11/26 10:47:44;;;;;;;551.07;529.40;;;7.30;99.90;;;;;;6154595;23;20464;-75
2023/11/26 10:50:13;;;;;;;557.43;534.60;;;7.30;99.90;;;;;;6154226;23;20913;-75
2023/11/26 10:52:47;;;;;;;611.03;584.23;;;7.30;99.90;;;;;;6154866;23;20495;-74
2023/11/26 10:55:18;;;;;;;615.63;589.50;;;7.30;99.90;;;;;;6128843;23;20458;-75
2023/11/26 10:57:54;;;;;;;608.83;582.77;;;7.30;99.90;;;;;;6154903;23;20459;-75
2023/11/26 11:00:22;;;;;;;636.50;608.23;;;7.30;99.90;;;;;;6154479;23;20395;-75
2023/11/26 11:02:49;;;;;;;670.90;640.40;;;7.30;99.90;;;;;;6156460;23;20526;-75
2023/11/26 11:05:19;;;;;;;617.70;591.40;;;7.40;99.90;;;;;;6156595;23;20558;-75
2023/11/26 11:07:48;;;;;;;615.37;588.63;;;7.40;99.90;;;;;;6156959;23;20449;-75
2023/11/26 11:10:23;;;;;;;640.47;612.97;;;7.40;99.90;;;;;;6156300;23;20413;-74
2023/11/26 11:12:59;;;;;;;715.25;681.67;;;7.50;99.90;;;;;;6155591;23;20948;-74
2023/11/26 11:15:27;;;;;;;662.85;633.05;;;7.60;99.90;;;;;;6155732;23;20746;-73
2023/11/26 11:17:54;;;;;;;460.67;442.23;;;7.60;99.90;;;;;;6157186;23;20253;-73
2023/11/26 11:20:41;;;;;;;482.17;462.90;;;7.70;99.90;;;;;;6156194;23;20446;-72
2023/11/26 11:23:31;;;;;;;431.13;414.53;;;7.70;99.90;;;;;;6155310;23;20437;-71
2023/11/26 11:26:01;;;;;;;512.77;492.87;;;7.70;99.90;;;;;;6156456;23;20866;-72
2023/11/26 11:28:37;;;;;;;450.33;433.63;;;7.60;99.90;;;;;;6156941;23;20411;-72
2023/11/26 11:31:05;;;;;;;460.40;442.90;;;7.50;99.90;;;;;;6156459;23;20476;-71
2023/11/26 11:33:32;;;;;;;498.70;479.80;;;7.50;99.90;;;;;;6156602;23;20946;-72
2023/11/26 11:35:59;;;;;;;604.60;579.60;;;7.40;99.90;;;;;;6156288;23;20472;-72
2023/11/26 11:38:26;;;;;;;696.23;666.00;;;7.40;99.90;;;;;;6156668;23;20805;-73
2023/11/26 11:41:16;;;;;;;719.43;687.63;;;7.40;99.90;;;;;;6156699;23;20422;-73
2023/11/26 11:43:43;;;;;;;738.63;704.83;;;7.50;99.90;;;;;;6156506;23;20390;-72
2023/11/26 11:46:47;;;;;;;781.20;744.03;;;7.50;99.90;;;;;;6155860;23;20499;-72
2023/11/26 11:49:13;;;;;;;722.43;689.77;;;7.70;99.90;;;;;;6154073;23;20422;-73
2023/11/26 11:51:44;;;;;;;681.30;651.67;;;7.80;99.90;;;;;;6155687;23;20408;-72
2023/11/26 11:54:47;;;;;;;660.10;631.73;;;7.90;99.90;;;;;;6155382;23;20401;-72
2023/11/26 11:57:17;;;;;;;630.40;605.00;;;8.00;99.90;;;;;;6127109;23;20896;-72
2023/11/26 11:59:45;;;;;;;560.17;537.57;;;8.00;99.90;;;;;;6155427;23;20408;-72
2023/11/26 12:02:13;;;;;;;538.03;517.73;;;8.00;99.90;;;;;;6155969;23;20438;-72
2023/11/26 12:04:41;;;;;;;448.17;431.97;;;8.00;99.90;;;;;;6155543;23;20795;-72
2023/11/26 12:07:09;;;;;;;457.97;441.60;;;8.00;99.90;;;;;;6155560;23;20455;-72
2023/11/26 12:09:41;;;;;;;420.90;405.97;;;8.00;99.90;;;;;;6155843;23;20439;-72
2023/11/26 12:12:08;;;;;;;407.10;392.87;;;7.90;99.90;;;;;;6155886;23;20397;-72
2023/11/26 12:14:37;;;;;;;402.90;388.90;;;7.90;99.90;;;;;;6156365;23;20772;-72
2023/11/26 12:17:07;;;;;;;414.53;399.83;;;7.90;99.90;;;;;;6155702;23;20990;-72
2023/11/26 12:19:39;;;;;;;422.23;407.17;;;7.70;99.90;;;;;;6155157;23;20903;-72
2023/11/26 12:22:06;;;;;;;433.83;418.60;;;7.70;99.90;;;;;;6155299;23;20523;-72